createdAt,value
2017-07-30T00:00:46.764Z,60.40
2017-07-30T00:03:15.012Z,60.30
2017-07-30T00:05:43.256Z,60.40
2017-07-30T00:08:11.687Z,60.80
2017-07-30T00:10:39.923Z,60.80
2017-07-30T00:13:08.177Z,60.40
2017-07-30T00:15:36.618Z,61.30
2017-07-30T00:18:04.876Z,61.70
2017-07-30T00:20:33.116Z,61.50
2017-07-30T00:23:01.963Z,61.00
2017-07-30T00:25:30.195Z,61.00
2017-07-30T00:27:58.835Z,60.80
2017-07-30T00:30:27.092Z,60.80
2017-07-30T00:32:55.338Z,61.00
2017-07-30T00:35:24.165Z,60.00
2017-07-30T00:37:52.409Z,60.00
2017-07-30T00:40:20.712Z,60.10
2017-07-30T00:42:48.980Z,60.60
2017-07-30T00:45:17.223Z,61.50
2017-07-30T00:47:45.851Z,62.20
2017-07-30T00:50:14.138Z,62.20
2017-07-30T00:52:42.391Z,61.90
2017-07-30T00:55:10.649Z,62.20
2017-07-30T00:57:38.915Z,61.90
2017-07-30T01:00:07.375Z,61.70
2017-07-30T01:02:35.633Z,61.20
2017-07-30T01:05:04.140Z,62.40
2017-07-30T01:07:32.386Z,62.60
2017-07-30T01:10:00.630Z,63.10
2017-07-30T01:12:28.904Z,64.00
2017-07-30T01:14:57.372Z,64.60
2017-07-30T01:17:25.615Z,63.30
2017-07-30T01:19:53.865Z,63.70
2017-07-30T01:22:22.332Z,63.30
2017-07-30T01:24:51.575Z,63.30
2017-07-30T01:27:20.210Z,63.70
2017-07-30T01:29:48.684Z,63.70
2017-07-30T01:32:17.343Z,63.70
2017-07-30T01:34:45.583Z,63.50
2017-07-30T01:37:13.833Z,63.10
2017-07-30T01:39:42.334Z,63.50
2017-07-30T01:42:10.571Z,64.00
2017-07-30T01:44:38.813Z,64.40
2017-07-30T01:47:07.234Z,65.10
2017-07-30T01:49:35.704Z,65.70
2017-07-30T01:52:03.945Z,65.80
2017-07-30T01:54:32.621Z,66.40
2017-07-30T01:57:00.871Z,66.40
2017-07-30T01:59:29.113Z,66.70
2017-07-30T02:01:57.389Z,67.40
2017-07-30T02:04:25.628Z,67.80
2017-07-30T02:06:53.916Z,67.80
2017-07-30T02:09:22.728Z,67.30
2017-07-30T02:11:51.206Z,67.30
2017-07-30T02:14:19.453Z,67.80
2017-07-30T02:16:47.945Z,68.30
2017-07-30T02:19:16.818Z,67.30
2017-07-30T02:21:45.056Z,67.30
2017-07-30T02:24:13.361Z,66.90
2017-07-30T02:26:41.591Z,66.00
2017-07-30T02:29:09.882Z,65.50
2017-07-30T02:31:38.116Z,64.90
2017-07-30T02:34:06.777Z,65.10
2017-07-30T02:36:35.050Z,65.10
2017-07-30T02:39:03.294Z,65.70
2017-07-30T02:41:31.545Z,67.10
2017-07-30T02:44:00.191Z,67.10
2017-07-30T02:46:28.428Z,67.80
2017-07-30T02:48:56.680Z,67.80
2017-07-30T02:51:24.974Z,68.00
2017-07-30T02:53:53.441Z,67.80
2017-07-30T02:56:21.693Z,67.60
2017-07-30T02:58:49.983Z,68.00
2017-07-30T03:01:18.264Z,67.80
2017-07-30T03:03:46.511Z,68.20
2017-07-30T03:06:14.941Z,68.30
2017-07-30T03:08:43.201Z,68.50
2017-07-30T03:11:11.677Z,68.20
2017-07-30T03:13:39.979Z,67.60
2017-07-30T03:16:08.207Z,66.70
2017-07-30T03:18:36.836Z,65.80
2017-07-30T03:21:05.128Z,65.80
2017-07-30T03:23:33.367Z,65.80
2017-07-30T03:26:01.820Z,65.50
2017-07-30T03:28:30.241Z,64.20
2017-07-30T03:30:58.496Z,63.70
2017-07-30T03:33:26.729Z,63.00
2017-07-30T03:35:55.006Z,62.60
2017-07-30T03:38:23.250Z,63.50
2017-07-30T03:40:51.502Z,64.80
2017-07-30T03:43:19.819Z,65.70
2017-07-30T03:45:48.075Z,65.80
2017-07-30T03:48:16.315Z,66.00
2017-07-30T03:50:44.599Z,66.60
2017-07-30T03:53:12.864Z,66.90
2017-07-30T03:55:41.505Z,67.10
2017-07-30T03:58:09.806Z,67.10
2017-07-30T04:00:38.054Z,67.10
2017-07-30T04:03:06.283Z,66.90
2017-07-30T04:05:34.560Z,66.70
2017-07-30T04:08:02.812Z,65.80
2017-07-30T04:10:31.462Z,64.60
2017-07-30T04:12:59.744Z,64.60
2017-07-30T04:15:27.985Z,64.40
2017-07-30T04:17:56.229Z,63.90
2017-07-30T04:20:24.661Z,63.70
2017-07-30T04:22:52.910Z,64.00
2017-07-30T04:25:21.144Z,64.20
2017-07-30T04:27:49.400Z,65.10
2017-07-30T04:30:17.683Z,65.80
2017-07-30T04:32:46.656Z,65.70
2017-07-30T04:35:15.092Z,66.20
2017-07-30T04:37:43.736Z,66.60
2017-07-30T04:40:11.996Z,66.60
2017-07-30T04:42:40.264Z,67.10
2017-07-30T04:45:08.504Z,66.90
2017-07-30T04:47:36.749Z,66.60
2017-07-30T04:50:05.172Z,66.70
2017-07-30T04:52:33.429Z,67.10
2017-07-30T04:55:02.053Z,67.10
2017-07-30T04:57:30.324Z,67.10
2017-07-30T04:59:58.784Z,66.00
2017-07-30T05:02:27.040Z,65.80
2017-07-30T05:04:55.751Z,64.40
2017-07-30T05:07:23.999Z,64.40
2017-07-30T05:09:52.244Z,63.70
2017-07-30T05:12:20.528Z,63.10
2017-07-30T05:14:48.764Z,64.40
2017-07-30T05:17:17.218Z,64.00
2017-07-30T05:19:45.978Z,62.80
2017-07-30T05:22:14.237Z,62.80
2017-07-30T05:24:42.489Z,63.30
2017-07-30T05:27:10.945Z,63.30
2017-07-30T05:29:39.192Z,62.40
2017-07-30T05:32:07.840Z,62.10
2017-07-30T05:34:36.281Z,62.10
2017-07-30T05:37:04.528Z,62.40
2017-07-30T05:39:32.760Z,62.40
2017-07-30T05:42:01.036Z,61.30
2017-07-30T05:44:29.293Z,60.30
2017-07-30T05:46:57.561Z,59.50
2017-07-30T05:49:25.920Z,59.80
2017-07-30T05:51:54.782Z,60.80
2017-07-30T05:54:23.025Z,60.80
2017-07-30T05:56:51.308Z,60.80
2017-07-30T05:59:19.550Z,60.40
2017-07-30T06:01:47.813Z,61.20
2017-07-30T06:04:16.092Z,60.40
2017-07-30T06:06:44.381Z,60.10
2017-07-30T06:09:12.629Z,59.50
2017-07-30T06:11:41.102Z,58.80
2017-07-30T06:14:09.322Z,58.60
2017-07-30T06:16:37.780Z,58.50
2017-07-30T06:19:06.424Z,57.60
2017-07-30T06:21:34.665Z,57.60
2017-07-30T06:24:02.921Z,57.20
2017-07-30T06:26:31.599Z,55.40
2017-07-30T06:29:00.235Z,54.80
2017-07-30T06:31:28.735Z,54.80
2017-07-30T06:33:57.155Z,54.60
2017-07-30T06:36:25.402Z,53.60
2017-07-30T06:38:53.642Z,52.70
2017-07-30T06:41:21.920Z,51.80
2017-07-30T06:43:50.393Z,51.50
2017-07-30T06:46:18.632Z,50.10
2017-07-30T06:48:47.453Z,50.40
2017-07-30T06:51:15.700Z,50.40
2017-07-30T06:53:43.947Z,50.50
2017-07-30T06:56:12.218Z,51.50
2017-07-30T06:58:40.447Z,52.10
2017-07-30T07:01:08.735Z,52.00
2017-07-30T07:03:37.693Z,52.40
2017-07-30T07:06:06.562Z,51.50
2017-07-30T07:08:34.803Z,51.50
2017-07-30T07:11:03.100Z,50.50
2017-07-30T07:13:31.578Z,49.90
2017-07-30T07:15:59.805Z,49.20
2017-07-30T07:18:28.078Z,49.20
2017-07-30T07:20:56.343Z,48.10
2017-07-30T07:23:24.593Z,47.40
2017-07-30T07:25:52.894Z,48.30
2017-07-30T07:28:21.329Z,47.80
2017-07-30T07:30:50.395Z,47.50
2017-07-30T07:33:18.989Z,47.00
2017-07-30T07:35:47.230Z,46.10
2017-07-30T07:38:15.475Z,45.90
2017-07-30T07:40:43.748Z,44.40
2017-07-30T07:43:11.999Z,44.10
2017-07-30T07:45:40.249Z,43.70
2017-07-30T07:48:08.528Z,43.60
2017-07-30T07:50:36.773Z,42.70
2017-07-30T07:53:05.022Z,42.10
2017-07-30T07:55:33.290Z,41.00
2017-07-30T07:58:01.523Z,41.20
2017-07-30T08:00:29.781Z,41.00
2017-07-30T08:02:58.032Z,40.70
2017-07-30T08:05:26.793Z,40.90
2017-07-30T08:07:55.060Z,40.20
2017-07-30T08:10:23.357Z,40.30
2017-07-30T08:12:51.591Z,40.00
2017-07-30T08:15:19.850Z,40.20
2017-07-30T08:17:48.896Z,39.70
2017-07-30T08:20:17.152Z,39.70
2017-07-30T08:22:45.416Z,39.40
2017-07-30T08:25:14.054Z,38.80
2017-07-30T08:27:42.291Z,38.80
2017-07-30T08:30:10.547Z,39.00
2017-07-30T08:32:38.814Z,39.10
2017-07-30T08:35:07.461Z,38.10
2017-07-30T08:37:35.697Z,38.10
2017-07-30T08:40:03.971Z,37.20
2017-07-30T08:42:32.238Z,37.10
2017-07-30T08:45:00.488Z,37.20
2017-07-30T08:47:28.769Z,37.20
2017-07-30T08:49:57.400Z,36.80
2017-07-30T08:52:25.646Z,36.80
2017-07-30T08:54:54.063Z,36.90
2017-07-30T08:57:22.306Z,36.20
2017-07-30T08:59:50.541Z,35.90
2017-07-30T09:02:18.960Z,37.20
2017-07-30T09:04:47.212Z,37.10
2017-07-30T09:07:15.458Z,35.70
2017-07-30T09:09:43.737Z,35.40
2017-07-30T09:12:11.972Z,35.00
2017-07-30T09:14:40.444Z,34.80
2017-07-30T09:17:08.690Z,35.40
2017-07-30T09:19:36.932Z,35.60
2017-07-30T09:22:05.183Z,35.60
2017-07-30T09:24:33.672Z,35.30
2017-07-30T09:27:01.925Z,34.70
2017-07-30T09:29:30.149Z,34.10
2017-07-30T09:31:58.449Z,34.00
2017-07-30T09:34:26.689Z,33.70
2017-07-30T09:36:54.929Z,33.70
2017-07-30T09:39:23.191Z,33.40
2017-07-30T09:41:51.436Z,34.20
2017-07-30T09:44:19.664Z,35.40
2017-07-30T09:46:47.939Z,36.00
2017-07-30T09:49:16.248Z,36.50
2017-07-30T09:51:44.491Z,36.90
2017-07-30T09:54:12.768Z,37.40
2017-07-30T09:56:40.993Z,37.10
2017-07-30T09:59:09.228Z,36.50
2017-07-30T10:01:37.495Z,36.30
2017-07-30T10:04:05.733Z,35.30
2017-07-30T10:06:33.984Z,35.40
2017-07-30T10:09:02.535Z,34.50
2017-07-30T10:11:30.784Z,34.20
2017-07-30T10:13:59.044Z,34.40
2017-07-30T10:16:27.323Z,34.50
2017-07-30T10:18:56.076Z,35.90
2017-07-30T10:21:24.528Z,35.90
2017-07-30T10:23:53.200Z,36.20
2017-07-30T10:26:21.449Z,36.60
2017-07-30T10:28:49.690Z,36.90
2017-07-30T10:31:17.952Z,36.50
2017-07-30T10:33:46.192Z,36.30
2017-07-30T10:36:14.420Z,35.70
2017-07-30T10:38:43.187Z,35.70
2017-07-30T10:41:11.493Z,35.70
2017-07-30T10:43:40.305Z,36.00
2017-07-30T10:46:09.140Z,35.60
2017-07-30T10:48:37.381Z,35.60
2017-07-30T10:51:05.629Z,35.40
2017-07-30T10:53:34.133Z,35.70
2017-07-30T10:56:02.467Z,35.70
2017-07-30T10:58:30.690Z,35.00
2017-07-30T11:00:59.001Z,35.30
2017-07-30T11:03:27.256Z,34.80
2017-07-30T11:05:55.710Z,35.30
2017-07-30T11:08:23.976Z,34.70
2017-07-30T11:10:52.616Z,35.40
2017-07-30T11:13:20.857Z,35.40
2017-07-30T11:15:49.564Z,35.60
2017-07-30T11:18:17.808Z,34.50
2017-07-30T11:20:46.435Z,35.10
2017-07-30T11:23:14.867Z,35.10
2017-07-30T11:25:43.497Z,35.70
2017-07-30T11:28:11.972Z,35.70
2017-07-30T11:30:42.041Z,35.60
2017-07-30T11:33:10.272Z,35.00
2017-07-30T11:35:38.580Z,34.80
2017-07-30T11:38:06.996Z,34.70
2017-07-30T11:40:35.243Z,34.40
2017-07-30T11:43:03.550Z,34.20
2017-07-30T11:45:31.820Z,34.00
2017-07-30T11:48:00.060Z,33.80
2017-07-30T11:50:28.327Z,32.90
2017-07-30T11:52:56.587Z,32.60
2017-07-30T11:55:25.081Z,32.30
2017-07-30T11:57:53.317Z,31.40
2017-07-30T12:00:21.749Z,31.30
2017-07-30T12:02:49.976Z,31.70
2017-07-30T12:05:18.209Z,31.40
2017-07-30T12:07:46.904Z,31.30
2017-07-30T12:10:15.536Z,30.80
2017-07-30T12:12:43.797Z,30.80
2017-07-30T12:15:12.107Z,30.70
2017-07-30T12:17:40.351Z,29.40
2017-07-30T12:20:08.615Z,29.20
2017-07-30T12:22:36.890Z,29.50
2017-07-30T12:25:05.373Z,29.70
2017-07-30T12:27:34.009Z,30.30
2017-07-30T12:30:02.252Z,30.30
2017-07-30T12:32:30.497Z,30.40
2017-07-30T12:34:59.315Z,31.10
2017-07-30T12:37:27.580Z,31.10
2017-07-30T12:39:55.848Z,30.40
2017-07-30T12:42:24.140Z,29.80
2017-07-30T12:44:53.561Z,31.30
2017-07-30T12:47:21.807Z,31.10
2017-07-30T12:49:50.308Z,31.10
2017-07-30T12:52:18.544Z,30.70
2017-07-30T12:54:47.199Z,30.30
2017-07-30T12:57:15.525Z,30.30
2017-07-30T12:59:43.762Z,30.60
2017-07-30T13:02:12.017Z,30.40
2017-07-30T13:04:40.275Z,30.80
2017-07-30T13:07:08.544Z,30.80
2017-07-30T13:09:37.488Z,30.80
2017-07-30T13:12:05.936Z,29.90
2017-07-30T13:14:34.177Z,30.30
2017-07-30T13:17:02.434Z,30.10
2017-07-30T13:19:30.773Z,29.40
2017-07-30T13:21:59.228Z,30.10
2017-07-30T13:24:27.470Z,30.10
2017-07-30T13:26:55.929Z,30.60
2017-07-30T13:29:24.203Z,31.00
2017-07-30T13:31:52.463Z,31.10
2017-07-30T13:34:20.712Z,30.40
2017-07-30T13:36:48.946Z,31.40
2017-07-30T13:39:17.881Z,31.60
2017-07-30T13:41:46.123Z,31.60
2017-07-30T13:44:14.612Z,31.40
2017-07-30T13:46:42.936Z,31.10
2017-07-30T13:49:11.201Z,31.30
2017-07-30T13:51:39.432Z,31.40
2017-07-30T13:54:07.709Z,31.40
2017-07-30T13:56:35.976Z,31.70
2017-07-30T13:59:04.606Z,32.80
2017-07-30T14:01:33.029Z,32.80
2017-07-30T14:04:01.661Z,32.80
2017-07-30T14:06:29.912Z,32.80
2017-07-30T14:08:58.461Z,32.80
2017-07-30T14:11:26.728Z,33.10
2017-07-30T14:13:54.980Z,33.10
2017-07-30T14:16:23.272Z,33.20
2017-07-30T14:18:51.508Z,33.50
2017-07-30T14:21:19.921Z,33.40
2017-07-30T14:23:48.223Z,33.20
2017-07-30T14:26:16.460Z,33.20
2017-07-30T14:28:44.731Z,33.50
2017-07-30T14:31:13.208Z,34.10
2017-07-30T14:33:41.507Z,34.10
2017-07-30T14:36:09.754Z,34.20
2017-07-30T14:38:37.997Z,34.20
2017-07-30T14:41:06.539Z,33.80
2017-07-30T14:43:34.774Z,34.00
2017-07-30T14:46:03.007Z,34.10
2017-07-30T14:48:31.285Z,34.10
2017-07-30T14:50:59.512Z,34.20
2017-07-30T14:53:27.758Z,34.00
2017-07-30T14:55:56.801Z,33.80
2017-07-30T14:58:25.021Z,33.80
2017-07-30T15:00:53.665Z,33.40
2017-07-30T15:03:22.242Z,33.40
2017-07-30T15:05:50.469Z,33.80
2017-07-30T15:08:19.120Z,33.70
2017-07-30T15:10:47.404Z,33.70
2017-07-30T15:13:15.648Z,34.10
2017-07-30T15:15:43.941Z,34.00
2017-07-30T15:18:12.355Z,33.50
2017-07-30T15:20:40.997Z,32.60
2017-07-30T15:23:09.599Z,32.60
2017-07-30T15:25:37.856Z,32.50
2017-07-30T15:28:06.360Z,31.90
2017-07-30T15:30:34.604Z,32.80
2017-07-30T15:33:02.874Z,32.50
2017-07-30T15:35:31.232Z,32.80
2017-07-30T15:37:59.492Z,32.60
2017-07-30T15:40:28.182Z,33.10
2017-07-30T15:42:56.440Z,33.10
2017-07-30T15:45:24.680Z,33.10
2017-07-30T15:47:53.251Z,32.80
2017-07-30T15:50:21.708Z,32.80
2017-07-30T15:52:49.951Z,32.60
2017-07-30T15:55:18.239Z,33.10
2017-07-30T15:57:46.473Z,33.50
2017-07-30T16:00:14.710Z,32.90
2017-07-30T16:02:42.955Z,33.70
2017-07-30T16:05:11.272Z,34.10
2017-07-30T16:07:39.746Z,34.10
2017-07-30T16:10:07.976Z,33.80
2017-07-30T16:12:36.298Z,34.20
2017-07-30T16:15:04.581Z,34.40
2017-07-30T16:17:32.833Z,34.40
2017-07-30T16:20:01.541Z,34.80
2017-07-30T16:22:29.777Z,34.80
2017-07-30T16:24:58.429Z,35.00
2017-07-30T16:27:26.725Z,35.10
2017-07-30T16:29:55.518Z,35.10
2017-07-30T16:32:23.786Z,35.10
2017-07-30T16:34:52.118Z,34.70
2017-07-30T16:37:20.344Z,34.50
2017-07-30T16:39:48.615Z,34.70
2017-07-30T16:42:16.860Z,34.80
2017-07-30T16:44:45.103Z,34.50
2017-07-30T16:47:13.738Z,34.50
2017-07-30T16:49:42.012Z,34.50
2017-07-30T16:52:10.479Z,34.80
2017-07-30T16:54:38.720Z,35.00
2017-07-30T16:57:07.153Z,34.80
2017-07-30T16:59:35.657Z,34.70
2017-07-30T17:02:03.895Z,34.80
2017-07-30T17:04:32.209Z,35.00
2017-07-30T17:07:00.703Z,35.00
2017-07-30T17:09:28.967Z,35.00
2017-07-30T17:11:57.231Z,35.30
2017-07-30T17:14:26.312Z,35.10
2017-07-30T17:16:54.590Z,34.70
2017-07-30T17:19:22.847Z,35.00
2017-07-30T17:21:51.107Z,35.10
2017-07-30T17:24:19.671Z,34.80
2017-07-30T17:26:47.916Z,34.70
2017-07-30T17:29:16.180Z,34.70
2017-07-30T17:31:44.868Z,34.50
2017-07-30T17:34:13.107Z,34.50
2017-07-30T17:36:41.350Z,34.20
2017-07-30T17:39:09.802Z,34.70
2017-07-30T17:41:38.048Z,35.00
2017-07-30T17:44:06.298Z,34.80
2017-07-30T17:46:34.608Z,35.00
2017-07-30T17:49:03.111Z,34.80
2017-07-30T17:51:31.732Z,35.10
2017-07-30T17:54:00.003Z,34.70
2017-07-30T17:56:28.633Z,34.80
2017-07-30T17:58:56.882Z,34.80
2017-07-30T18:01:25.134Z,35.00
2017-07-30T18:03:53.369Z,35.10
2017-07-30T18:06:21.666Z,35.60
2017-07-30T18:08:49.908Z,35.60
2017-07-30T18:11:18.159Z,35.60
2017-07-30T18:13:46.441Z,36.00
2017-07-30T18:16:14.701Z,36.20
2017-07-30T18:18:42.962Z,36.50
2017-07-30T18:21:11.324Z,36.50
2017-07-30T18:23:39.637Z,36.90
2017-07-30T18:26:07.878Z,36.90
2017-07-30T18:28:36.353Z,37.20
2017-07-30T18:31:04.597Z,37.20
2017-07-30T18:33:33.094Z,37.50
2017-07-30T18:36:01.385Z,37.50
2017-07-30T18:38:29.649Z,37.80
2017-07-30T18:40:57.904Z,38.10
2017-07-30T18:43:26.148Z,37.90
2017-07-30T18:45:54.399Z,37.80
2017-07-30T18:48:22.669Z,37.60
2017-07-30T18:50:51.321Z,37.80
2017-07-30T18:53:19.573Z,37.80
2017-07-30T18:55:47.841Z,37.80
2017-07-30T18:58:16.072Z,37.90
2017-07-30T19:00:44.332Z,37.90
2017-07-30T19:03:12.752Z,37.80
2017-07-30T19:05:41.392Z,38.40
2017-07-30T19:08:09.676Z,38.50
2017-07-30T19:10:38.152Z,38.70
2017-07-30T19:13:06.420Z,38.70
2017-07-30T19:15:34.681Z,39.10
2017-07-30T19:18:02.949Z,38.50
2017-07-30T19:20:31.180Z,38.80
2017-07-30T19:22:59.473Z,38.80
2017-07-30T19:25:27.741Z,39.10
2017-07-30T19:27:56.000Z,39.30
2017-07-30T19:30:24.297Z,39.60
2017-07-30T19:32:52.542Z,39.90
2017-07-30T19:35:20.782Z,39.90
2017-07-30T19:37:49.044Z,40.00
2017-07-30T19:40:17.294Z,40.00
2017-07-30T19:42:45.532Z,40.00
2017-07-30T19:45:13.832Z,40.20
2017-07-30T19:47:42.128Z,40.30
2017-07-30T19:50:10.384Z,40.50
2017-07-30T19:52:39.372Z,40.70
2017-07-30T19:55:07.610Z,40.60
2017-07-30T19:57:35.857Z,40.60
2017-07-30T20:00:04.542Z,40.60
2017-07-30T20:02:32.800Z,40.60
2017-07-30T20:05:01.433Z,40.30
2017-07-30T20:07:29.760Z,40.30
2017-07-30T20:09:58.022Z,40.60
2017-07-30T20:12:26.269Z,40.90
2017-07-30T20:14:55.124Z,40.90
2017-07-30T20:17:23.396Z,41.30
2017-07-30T20:19:51.653Z,41.50
2017-07-30T20:22:19.988Z,41.60
2017-07-30T20:24:48.253Z,41.80
2017-07-30T20:27:16.488Z,41.80
2017-07-30T20:29:44.829Z,42.50
2017-07-30T20:32:13.079Z,42.50
2017-07-30T20:34:41.315Z,42.70
2017-07-30T20:37:10.297Z,43.30
2017-07-30T20:39:38.540Z,43.30
2017-07-30T20:42:06.831Z,42.80
2017-07-30T20:44:35.108Z,42.70
2017-07-30T20:47:03.383Z,42.50
2017-07-30T20:49:31.645Z,42.50
2017-07-30T20:51:59.913Z,42.70
2017-07-30T20:54:28.145Z,42.80
2017-07-30T20:56:56.416Z,42.80
2017-07-30T20:59:25.282Z,43.30
2017-07-30T21:01:53.512Z,43.30
2017-07-30T21:04:21.788Z,43.30
2017-07-30T21:06:50.205Z,43.60
2017-07-30T21:09:18.449Z,43.70
2017-07-30T21:11:47.209Z,43.70
2017-07-30T21:14:15.492Z,44.10
2017-07-30T21:16:43.743Z,44.00
2017-07-30T21:19:12.201Z,44.00
2017-07-30T21:21:40.497Z,44.10
2017-07-30T21:24:08.760Z,44.40
2017-07-30T21:26:36.981Z,44.10
2017-07-30T21:29:05.364Z,44.10
2017-07-30T21:31:33.594Z,44.30
2017-07-30T21:34:01.972Z,44.10
2017-07-30T21:36:31.066Z,44.30
2017-07-30T21:38:59.703Z,44.30
2017-07-30T21:41:28.048Z,44.30
2017-07-30T21:43:57.021Z,44.60
2017-07-30T21:46:25.327Z,44.60
2017-07-30T21:48:53.644Z,44.60
2017-07-30T21:51:21.986Z,44.60
2017-07-30T21:53:50.228Z,44.90
2017-07-30T21:56:18.475Z,45.20
2017-07-30T21:58:46.764Z,45.60
2017-07-30T22:01:15.676Z,45.80
2017-07-30T22:03:44.240Z,45.80
2017-07-30T22:06:12.500Z,45.90
2017-07-30T22:08:40.727Z,45.60
2017-07-30T22:11:08.982Z,45.50
2017-07-30T22:13:37.310Z,45.50
2017-07-30T22:16:05.576Z,45.30
2017-07-30T22:18:33.813Z,45.30
2017-07-30T22:21:02.486Z,45.00
2017-07-30T22:23:30.716Z,44.90
2017-07-30T22:25:58.973Z,45.00
2017-07-30T22:28:27.212Z,45.00
2017-07-30T22:30:55.450Z,45.20
2017-07-30T22:33:23.699Z,45.00
2017-07-30T22:35:52.455Z,45.00
2017-07-30T22:38:20.690Z,44.90
2017-07-30T22:40:48.925Z,44.90
2017-07-30T22:43:17.581Z,44.90
2017-07-30T22:45:45.849Z,44.90
2017-07-30T22:48:14.076Z,44.90
2017-07-30T22:50:42.528Z,45.20
2017-07-30T22:53:10.776Z,45.30
2017-07-30T22:55:39.059Z,45.50
2017-07-30T22:58:07.368Z,45.50
2017-07-30T23:00:36.104Z,45.50
2017-07-30T23:03:04.362Z,45.50
2017-07-30T23:05:32.863Z,45.50
2017-07-30T23:08:01.104Z,45.50
2017-07-30T23:10:29.332Z,45.30
2017-07-30T23:12:57.799Z,45.30
2017-07-30T23:15:26.305Z,45.60
2017-07-30T23:17:54.546Z,46.20
2017-07-30T23:20:22.809Z,47.40
2017-07-30T23:22:51.058Z,48.30
2017-07-30T23:25:19.320Z,48.60
2017-07-30T23:27:47.763Z,48.30
2017-07-30T23:30:16.020Z,49.20
2017-07-30T23:32:44.277Z,47.10
2017-07-30T23:35:12.789Z,48.60
2017-07-30T23:37:41.040Z,48.10
2017-07-30T23:40:09.279Z,48.60
2017-07-30T23:42:38.343Z,48.40
2017-07-30T23:45:06.572Z,48.40
2017-07-30T23:47:34.842Z,49.00
2017-07-30T23:50:03.496Z,49.60
2017-07-30T23:52:31.738Z,49.50
2017-07-30T23:55:00.016Z,49.50
2017-07-30T23:57:28.568Z,49.30
2017-07-30T23:59:56.808Z,49.20
